createdAt,value
2022-10-06T00:01:27.627Z,19.03
2022-10-06T00:03:55.454Z,18.99
2022-10-06T00:06:22.918Z,19.15
2022-10-06T00:08:49.376Z,19.14
2022-10-06T00:11:16.534Z,19.21
2022-10-06T00:13:42.954Z,19.10
2022-10-06T00:16:10.621Z,18.99
2022-10-06T00:18:37.093Z,19.28
2022-10-06T00:21:05.101Z,19.11
2022-10-06T00:23:31.689Z,18.63
2022-10-06T00:25:58.192Z,18.31
2022-10-06T00:28:25.367Z,18.23
2022-10-06T00:30:52.074Z,17.92
2022-10-06T00:33:19.392Z,18.10
2022-10-06T00:35:46.354Z,17.95
2022-10-06T00:38:16.300Z,17.37
2022-10-06T00:40:45.060Z,17.44
2022-10-06T00:43:50.324Z,16.86
2022-10-06T00:46:24.062Z,17.36
2022-10-06T00:48:54.463Z,17.53
2022-10-06T00:51:22.211Z,17.41
2022-10-06T00:53:50.355Z,17.21
2022-10-06T00:56:16.854Z,17.36
2022-10-06T00:58:43.325Z,17.22
2022-10-06T01:01:11.942Z,17.33
2022-10-06T01:03:42.416Z,17.21
2022-10-06T01:06:09.507Z,17.07
2022-10-06T01:08:36.740Z,16.58
2022-10-06T01:11:04.576Z,17.08
2022-10-06T01:13:32.662Z,17.08
2022-10-06T01:16:07.881Z,16.98
2022-10-06T01:18:37.196Z,17.18
2022-10-06T01:21:08.327Z,17.17
2022-10-06T01:23:36.460Z,17.21
2022-10-06T01:26:07.009Z,17.33
2022-10-06T01:28:34.257Z,17.19
2022-10-06T01:31:02.349Z,17.03
2022-10-06T01:33:28.958Z,16.98
2022-10-06T01:35:56.155Z,17.03
2022-10-06T01:38:23.265Z,17.07
2022-10-06T01:40:52.294Z,16.13
2022-10-06T01:43:19.007Z,16.61
2022-10-06T01:45:45.462Z,16.91
2022-10-06T01:48:11.880Z,16.97
2022-10-06T01:50:40.667Z,16.73
2022-10-06T01:53:07.394Z,16.39
2022-10-06T01:55:33.807Z,16.79
2022-10-06T01:58:01.605Z,17.00
2022-10-06T02:00:28.109Z,16.84
2022-10-06T02:02:54.885Z,16.56
2022-10-06T02:05:21.302Z,16.68
2022-10-06T02:07:47.698Z,16.71
2022-10-06T02:10:14.196Z,16.97
2022-10-06T02:12:40.654Z,16.62
2022-10-06T02:15:09.765Z,16.81
2022-10-06T02:17:36.551Z,17.08
2022-10-06T02:20:03.194Z,16.77
2022-10-06T02:22:29.671Z,16.45
2022-10-06T02:24:56.112Z,16.44
2022-10-06T02:27:22.526Z,16.61
2022-10-06T02:29:48.988Z,16.45
2022-10-06T02:32:16.807Z,16.69
2022-10-06T02:34:43.211Z,16.14
2022-10-06T02:37:09.633Z,16.37
2022-10-06T02:39:36.026Z,16.54
2022-10-06T02:42:03.861Z,15.90
2022-10-06T02:44:30.278Z,16.44
2022-10-06T02:46:56.750Z,16.31
2022-10-06T02:49:24.765Z,16.47
2022-10-06T02:51:51.186Z,16.40
2022-10-06T02:54:17.677Z,16.59
2022-10-06T02:56:44.085Z,16.53
2022-10-06T02:59:10.504Z,16.46
2022-10-06T03:01:37.050Z,16.52
2022-10-06T03:04:03.622Z,16.65
2022-10-06T03:06:31.458Z,16.26
2022-10-06T03:08:59.902Z,16.49
2022-10-06T03:11:28.385Z,16.53
2022-10-06T03:13:55.016Z,16.80
2022-10-06T03:16:23.466Z,16.95
2022-10-06T03:18:52.671Z,16.30
2022-10-06T03:21:20.815Z,15.90
2022-10-06T03:23:50.440Z,16.30
2022-10-06T03:26:19.591Z,16.39
2022-10-06T03:28:46.661Z,16.52
2022-10-06T03:31:14.544Z,16.26
2022-10-06T03:33:41.002Z,16.06
2022-10-06T03:36:10.263Z,15.80
2022-10-06T03:38:37.204Z,16.10
2022-10-06T03:41:10.300Z,15.61
2022-10-06T03:43:37.869Z,16.30
2022-10-06T03:46:05.922Z,16.41
2022-10-06T03:48:34.167Z,15.79
2022-10-06T03:51:02.342Z,15.89
2022-10-06T03:53:29.764Z,16.32
2022-10-06T03:56:00.549Z,16.12
2022-10-06T03:58:28.870Z,15.37
2022-10-06T04:01:00.011Z,15.96
2022-10-06T04:03:26.629Z,16.09
2022-10-06T04:05:54.502Z,16.19
2022-10-06T04:08:20.936Z,16.24
2022-10-06T04:10:47.366Z,16.33
2022-10-06T04:13:16.060Z,16.41
2022-10-06T04:15:44.212Z,16.37
2022-10-06T04:18:10.682Z,15.90
2022-10-06T04:20:37.144Z,16.15
2022-10-06T04:23:04.592Z,16.06
2022-10-06T04:25:31.028Z,16.41
2022-10-06T04:27:57.597Z,16.01
2022-10-06T04:30:24.552Z,16.40
2022-10-06T04:32:53.475Z,16.15
2022-10-06T04:35:19.905Z,16.49
2022-10-06T04:37:46.319Z,16.42
2022-10-06T04:40:12.951Z,16.57
2022-10-06T04:42:39.488Z,16.41
2022-10-06T04:45:07.338Z,16.52
2022-10-06T04:47:33.732Z,16.64
2022-10-06T04:50:01.500Z,16.54
2022-10-06T04:52:27.941Z,16.48
2022-10-06T04:54:54.356Z,16.32
2022-10-06T04:57:20.739Z,16.56
2022-10-06T04:59:47.222Z,16.61
2022-10-06T05:02:13.731Z,16.93
2022-10-06T05:04:40.257Z,16.56
2022-10-06T05:07:08.045Z,16.75
2022-10-06T05:09:34.508Z,16.44
2022-10-06T05:12:00.904Z,16.68
2022-10-06T05:14:27.442Z,16.66
2022-10-06T05:16:53.898Z,16.73
2022-10-06T05:19:20.370Z,16.39
2022-10-06T05:21:46.784Z,16.44
2022-10-06T05:24:14.536Z,16.68
2022-10-06T05:26:41.008Z,16.94
2022-10-06T05:29:07.448Z,16.89
2022-10-06T05:31:35.752Z,17.00
2022-10-06T05:34:02.251Z,17.05
2022-10-06T05:36:31.054Z,16.88
2022-10-06T05:38:58.111Z,16.93
2022-10-06T05:41:27.823Z,16.58
2022-10-06T05:43:54.714Z,16.44
2022-10-06T05:46:22.538Z,16.48
2022-10-06T05:48:50.612Z,16.34
2022-10-06T05:51:18.500Z,16.76
2022-10-06T05:53:45.989Z,16.58
2022-10-06T05:56:14.741Z,16.40
2022-10-06T05:58:44.362Z,16.76
2022-10-06T06:01:13.045Z,16.04
2022-10-06T06:03:40.828Z,16.34
2022-10-06T06:06:16.121Z,16.12
2022-10-06T06:08:42.811Z,16.26
2022-10-06T06:11:10.159Z,15.89
2022-10-06T06:13:36.669Z,16.23
2022-10-06T06:16:06.519Z,16.24
2022-10-06T06:18:35.682Z,15.94
2022-10-06T06:21:04.451Z,15.90
2022-10-06T06:23:32.857Z,15.73
2022-10-06T06:26:02.434Z,16.23
2022-10-06T06:28:29.849Z,15.93
2022-10-06T06:31:01.478Z,16.33
2022-10-06T06:33:29.874Z,15.39
2022-10-06T06:35:56.302Z,15.91
2022-10-06T06:38:22.910Z,15.58
2022-10-06T06:40:49.344Z,16.16
2022-10-06T06:43:15.789Z,15.96
2022-10-06T06:45:42.282Z,15.97
2022-10-06T06:48:14.196Z,15.61
2022-10-06T06:50:42.172Z,15.63
2022-10-06T06:53:10.767Z,15.59
2022-10-06T06:55:48.223Z,15.99
2022-10-06T06:58:14.615Z,15.62
2022-10-06T07:00:41.167Z,15.99
2022-10-06T07:03:12.379Z,15.64
2022-10-06T07:05:38.818Z,15.99
2022-10-06T07:08:06.819Z,15.53
2022-10-06T07:10:33.280Z,15.92
2022-10-06T07:12:59.706Z,16.14
2022-10-06T07:15:26.117Z,15.56
2022-10-06T07:17:52.514Z,15.90
2022-10-06T07:20:18.941Z,16.31
2022-10-06T07:22:45.379Z,16.26
2022-10-06T07:25:25.385Z,15.67
2022-10-06T07:27:53.036Z,15.94
2022-10-06T07:30:22.519Z,16.25
2022-10-06T07:32:50.442Z,16.13
2022-10-06T07:35:18.111Z,16.22
2022-10-06T07:37:44.508Z,16.25
2022-10-06T07:40:11.563Z,16.28
2022-10-06T07:42:40.393Z,15.71
2022-10-06T07:45:07.633Z,15.92
2022-10-06T07:47:34.672Z,16.32
2022-10-06T07:50:01.276Z,15.81
2022-10-06T07:52:27.792Z,15.61
2022-10-06T07:54:54.802Z,15.84
2022-10-06T07:57:21.529Z,16.09
2022-10-06T07:59:49.332Z,16.45
2022-10-06T08:02:15.864Z,16.39
2022-10-06T08:04:42.465Z,16.47
2022-10-06T08:07:09.012Z,16.26
2022-10-06T08:09:35.539Z,16.37
2022-10-06T08:12:01.954Z,16.37
2022-10-06T08:14:28.428Z,16.31
2022-10-06T08:16:56.164Z,16.50
2022-10-06T08:19:22.579Z,16.25
2022-10-06T08:21:49.589Z,16.17
2022-10-06T08:24:16.043Z,16.42
2022-10-06T08:26:42.460Z,16.29
2022-10-06T08:29:09.073Z,16.81
2022-10-06T08:31:35.606Z,16.79
2022-10-06T08:34:03.370Z,16.20
2022-10-06T08:36:32.221Z,16.66
2022-10-06T08:38:59.491Z,16.69
2022-10-06T08:41:27.933Z,16.94
2022-10-06T08:44:00.030Z,16.82
2022-10-06T08:46:32.562Z,16.73
2022-10-06T08:48:59.095Z,16.44
2022-10-06T08:51:44.121Z,16.97
2022-10-06T08:54:14.949Z,16.88
2022-10-06T08:56:48.740Z,16.89
2022-10-06T08:59:15.840Z,16.79
2022-10-06T09:01:45.366Z,16.92
2022-10-06T09:04:18.847Z,16.86
2022-10-06T09:06:51.459Z,16.70
2022-10-06T09:09:27.577Z,16.98
2022-10-06T09:12:02.571Z,16.92
2022-10-06T09:14:35.328Z,16.95
2022-10-06T09:17:06.317Z,17.10
2022-10-06T09:19:41.247Z,17.23
2022-10-06T09:22:15.964Z,16.97
2022-10-06T09:24:46.981Z,16.43
2022-10-06T09:27:17.908Z,17.08
2022-10-06T09:29:45.332Z,17.18
2022-10-06T09:32:12.968Z,16.79
2022-10-06T09:34:43.068Z,17.14
2022-10-06T09:37:12.243Z,16.97
2022-10-06T09:39:40.649Z,17.09
2022-10-06T09:42:14.366Z,17.27
2022-10-06T09:44:46.281Z,17.13
2022-10-06T09:47:29.734Z,17.26
2022-10-06T09:50:13.615Z,17.48
2022-10-06T09:52:42.200Z,16.83
2022-10-06T09:55:10.763Z,16.83
2022-10-06T09:57:37.294Z,17.18
2022-10-06T10:00:04.863Z,17.34
2022-10-06T10:02:33.463Z,17.66
2022-10-06T10:05:00.053Z,17.62
2022-10-06T10:07:29.032Z,17.41
2022-10-06T10:10:20.206Z,17.66
2022-10-06T10:12:50.011Z,17.62
2022-10-06T10:15:26.051Z,18.05
2022-10-06T10:17:54.363Z,17.67
2022-10-06T10:20:30.825Z,17.74
2022-10-06T10:22:59.274Z,17.58
2022-10-06T10:25:55.972Z,18.00
2022-10-06T10:28:40.005Z,17.62
2022-10-06T10:31:15.574Z,17.89
2022-10-06T10:33:54.230Z,18.04
2022-10-06T10:36:37.312Z,18.28
2022-10-06T10:39:07.569Z,18.51
2022-10-06T10:41:44.998Z,18.08
2022-10-06T10:44:24.476Z,18.45
2022-10-06T10:46:53.827Z,18.15
2022-10-06T10:49:25.978Z,18.11
2022-10-06T10:51:56.722Z,18.24
2022-10-06T10:54:27.781Z,18.42
2022-10-06T10:56:55.623Z,18.29
2022-10-06T10:59:27.201Z,18.19
2022-10-06T11:01:59.456Z,17.84
2022-10-06T11:04:26.691Z,18.27
2022-10-06T11:07:05.859Z,17.78
2022-10-06T11:09:40.512Z,18.15
2022-10-06T11:12:28.699Z,18.31
2022-10-06T11:14:57.600Z,18.40
2022-10-06T11:17:36.924Z,18.25
2022-10-06T11:20:14.789Z,18.26
2022-10-06T11:22:47.021Z,17.46
2022-10-06T11:25:22.265Z,18.25
2022-10-06T11:27:59.607Z,18.27
2022-10-06T11:30:26.454Z,18.73
2022-10-06T11:33:11.357Z,18.48
2022-10-06T11:35:40.948Z,18.63
2022-10-06T11:38:15.664Z,18.78
2022-10-06T11:41:07.375Z,18.65
2022-10-06T11:43:45.866Z,18.76
2022-10-06T11:46:29.736Z,18.55
2022-10-06T11:49:35.798Z,18.65
2022-10-06T11:52:50.432Z,18.59
2022-10-06T11:55:18.471Z,18.31
2022-10-06T11:58:23.410Z,18.50
2022-10-06T12:00:53.461Z,18.47
2022-10-06T12:03:49.238Z,18.28
2022-10-06T12:06:53.034Z,18.29
2022-10-06T12:09:44.883Z,18.20
2022-10-06T12:13:06.068Z,18.49
2022-10-06T12:19:16.131Z,18.37
2022-10-06T12:21:50.218Z,18.59
2022-10-06T12:24:29.145Z,19.02
2022-10-06T12:27:15.277Z,18.65
2022-10-06T12:29:47.670Z,18.59
2022-10-06T12:32:28.437Z,18.63
2022-10-06T12:35:08.521Z,18.76
2022-10-06T12:37:40.231Z,18.70
2022-10-06T12:40:45.163Z,18.78
2022-10-06T12:43:43.721Z,18.32
2022-10-06T12:46:14.148Z,18.82
2022-10-06T12:48:45.408Z,19.10
2022-10-06T12:51:27.890Z,18.95
2022-10-06T12:54:01.513Z,18.98
2022-10-06T12:56:28.721Z,18.17
2022-10-06T12:58:55.616Z,18.50
2022-10-06T13:01:23.100Z,18.99
2022-10-06T13:03:50.933Z,18.95
2022-10-06T13:06:22.315Z,18.88
2022-10-06T13:09:03.776Z,18.84
2022-10-06T13:11:30.227Z,18.88
2022-10-06T13:13:58.941Z,19.11
2022-10-06T13:16:27.322Z,18.71
2022-10-06T13:18:56.052Z,18.95
2022-10-06T13:21:24.497Z,19.16
2022-10-06T13:23:51.131Z,18.87
2022-10-06T13:26:21.308Z,18.82
2022-10-06T13:28:49.730Z,18.50
2022-10-06T13:31:19.523Z,18.99
2022-10-06T13:33:48.704Z,18.39
2022-10-06T13:36:15.722Z,18.63
2022-10-06T13:38:43.652Z,18.49
2022-10-06T13:41:22.300Z,18.72
2022-10-06T13:43:51.388Z,19.08
2022-10-06T13:46:21.489Z,18.43
2022-10-06T13:48:50.790Z,18.18
2022-10-06T13:51:19.638Z,18.88
2022-10-06T13:53:47.509Z,19.01
2022-10-06T13:56:36.042Z,18.97
2022-10-06T13:59:32.475Z,18.47
2022-10-06T14:02:13.890Z,18.23
2022-10-06T14:04:40.476Z,18.35
2022-10-06T14:07:11.864Z,18.71
2022-10-06T14:09:41.940Z,18.99
2022-10-06T14:12:13.462Z,18.10
2022-10-06T14:14:45.013Z,18.19
2022-10-06T14:17:21.942Z,18.84
2022-10-06T14:19:48.965Z,18.70
2022-10-06T14:22:30.540Z,18.00
2022-10-06T14:24:58.281Z,18.32
2022-10-06T14:27:24.690Z,18.46
2022-10-06T14:29:51.126Z,18.65
2022-10-06T14:32:18.544Z,18.40
2022-10-06T14:34:45.272Z,18.55
2022-10-06T14:37:12.340Z,18.22
2022-10-06T14:39:39.241Z,18.21
2022-10-06T14:42:07.496Z,18.43
2022-10-06T14:44:34.097Z,18.32
2022-10-06T14:47:00.627Z,18.44
2022-10-06T14:49:27.148Z,18.66
2022-10-06T14:51:53.608Z,18.50
2022-10-06T14:54:20.021Z,18.62
2022-10-06T14:56:46.460Z,18.04
2022-10-06T14:59:14.175Z,17.62
2022-10-06T15:01:40.656Z,18.31
2022-10-06T15:04:09.245Z,17.84
2022-10-06T15:06:35.684Z,18.23
2022-10-06T15:09:02.100Z,18.25
2022-10-06T15:11:29.299Z,17.81
2022-10-06T15:13:56.657Z,18.16
2022-10-06T15:16:25.256Z,18.03
2022-10-06T15:18:52.437Z,18.00
2022-10-06T15:21:19.972Z,17.99
2022-10-06T15:23:46.844Z,18.20
2022-10-06T15:26:13.299Z,18.13
2022-10-06T15:28:39.747Z,18.03
2022-10-06T15:31:06.226Z,18.21
2022-10-06T15:33:34.073Z,18.06
2022-10-06T15:36:16.080Z,17.65
2022-10-06T15:38:42.919Z,18.12
2022-10-06T15:41:09.867Z,17.71
2022-10-06T15:43:36.904Z,18.06
2022-10-06T15:46:03.361Z,17.95
2022-10-06T15:48:29.908Z,18.31
2022-10-06T15:50:57.759Z,18.33
2022-10-06T15:53:24.195Z,17.94
2022-10-06T15:55:50.729Z,18.38
2022-10-06T15:58:17.175Z,18.45
2022-10-06T16:00:43.580Z,18.17
2022-10-06T16:03:10.063Z,18.16
2022-10-06T16:05:36.597Z,17.49
2022-10-06T16:08:04.439Z,17.75
2022-10-06T16:10:30.939Z,17.51
2022-10-06T16:12:57.399Z,17.51
2022-10-06T16:15:23.991Z,17.56
2022-10-06T16:17:50.428Z,17.44
2022-10-06T16:20:16.862Z,17.62
2022-10-06T16:22:43.273Z,17.52
2022-10-06T16:25:11.177Z,17.10
2022-10-06T16:27:37.655Z,17.31
2022-10-06T16:30:05.062Z,17.49
2022-10-06T16:32:31.511Z,17.20
2022-10-06T16:34:57.907Z,16.81
2022-10-06T16:37:24.591Z,17.38
2022-10-06T16:39:50.994Z,17.25
2022-10-06T16:42:18.913Z,16.78
2022-10-06T16:44:45.313Z,17.05
2022-10-06T16:47:11.797Z,17.09
2022-10-06T16:49:38.222Z,16.81
2022-10-06T16:52:04.647Z,16.86
2022-10-06T16:54:31.149Z,16.90
2022-10-06T16:56:57.581Z,16.62
2022-10-06T16:59:25.359Z,16.57
2022-10-06T17:01:51.791Z,16.60
2022-10-06T17:04:19.938Z,16.60
2022-10-06T17:06:48.046Z,16.75
2022-10-06T17:09:16.178Z,16.75
2022-10-06T17:11:44.989Z,16.42
2022-10-06T17:14:12.003Z,16.30
2022-10-06T17:16:41.754Z,16.20
2022-10-06T17:19:10.593Z,16.52
2022-10-06T17:21:46.681Z,16.42
2022-10-06T17:24:15.026Z,16.56
2022-10-06T17:26:43.408Z,16.33
2022-10-06T17:29:13.782Z,16.52
2022-10-06T17:31:43.075Z,16.19
2022-10-06T17:34:11.208Z,16.01
2022-10-06T17:36:38.284Z,16.08
2022-10-06T17:39:05.970Z,15.85
2022-10-06T17:41:34.512Z,15.93
2022-10-06T17:44:03.865Z,16.01
2022-10-06T17:46:31.980Z,15.99
2022-10-06T17:49:03.524Z,15.98
2022-10-06T17:51:29.940Z,16.02
2022-10-06T17:53:58.035Z,15.68
2022-10-06T17:56:26.400Z,15.80
2022-10-06T17:58:54.752Z,15.81
2022-10-06T18:01:22.984Z,15.98
2022-10-06T18:03:50.065Z,15.82
2022-10-06T18:06:17.917Z,15.78
2022-10-06T18:08:48.278Z,15.88
2022-10-06T18:11:17.056Z,15.54
2022-10-06T18:13:43.665Z,15.63
2022-10-06T18:16:14.850Z,15.36
2022-10-06T18:18:45.647Z,15.65
2022-10-06T18:21:12.967Z,15.52
2022-10-06T18:23:40.921Z,15.61
2022-10-06T18:26:07.321Z,15.73
2022-10-06T18:28:33.857Z,15.65
2022-10-06T18:31:00.371Z,15.88
2022-10-06T18:36:15.452Z,15.51
2022-10-06T18:38:44.783Z,15.89
2022-10-06T18:41:12.934Z,15.56
2022-10-06T18:43:39.355Z,15.76
2022-10-06T18:46:06.963Z,15.70
2022-10-06T18:48:33.706Z,15.36
2022-10-06T18:51:00.877Z,15.57
2022-10-06T18:53:27.308Z,15.44
2022-10-06T18:55:55.180Z,15.64
2022-10-06T18:58:21.678Z,15.67
2022-10-06T19:00:48.175Z,15.56
2022-10-06T19:03:14.638Z,15.26
2022-10-06T19:05:50.907Z,15.24
2022-10-06T19:08:17.358Z,15.56
2022-10-06T19:10:43.792Z,15.40
2022-10-06T19:13:11.544Z,15.42
2022-10-06T19:15:37.999Z,15.06
2022-10-06T19:18:04.695Z,15.03
2022-10-06T19:20:31.100Z,14.88
2022-10-06T19:22:57.576Z,14.96
2022-10-06T19:25:24.140Z,14.96
2022-10-06T19:27:50.532Z,14.69
2022-10-06T19:30:18.551Z,14.53
2022-10-06T19:32:45.109Z,14.20
2022-10-06T19:35:11.547Z,14.40
2022-10-06T19:37:39.008Z,14.48
2022-10-06T19:40:05.660Z,14.24
2022-10-06T19:42:32.143Z,13.95
2022-10-06T19:44:59.034Z,13.68
2022-10-06T19:47:27.468Z,13.77
2022-10-06T19:49:57.848Z,13.81
2022-10-06T19:52:25.746Z,13.81
2022-10-06T19:54:52.233Z,14.19
2022-10-06T19:57:18.810Z,14.19
2022-10-06T19:59:45.353Z,14.10
2022-10-06T20:02:11.821Z,14.18
2022-10-06T20:04:39.730Z,14.04
2022-10-06T20:07:06.346Z,14.22
2022-10-06T20:09:32.813Z,13.92
2022-10-06T20:12:00.649Z,13.80
2022-10-06T20:14:27.754Z,13.69
2022-10-06T20:16:56.271Z,13.86
2022-10-06T20:19:23.801Z,13.42
2022-10-06T20:21:52.225Z,13.65
2022-10-06T20:24:21.057Z,13.80
2022-10-06T20:26:47.567Z,13.68
2022-10-06T20:29:15.418Z,13.57
2022-10-06T20:31:43.912Z,13.98
2022-10-06T20:34:12.780Z,13.77
2022-10-06T20:36:39.375Z,13.95
2022-10-06T20:39:11.140Z,13.55
2022-10-06T20:41:38.011Z,14.04
2022-10-06T20:44:05.177Z,13.77
2022-10-06T20:46:33.606Z,13.59
2022-10-06T20:49:01.436Z,13.67
2022-10-06T20:51:28.111Z,13.78
2022-10-06T20:53:54.511Z,13.03
2022-10-06T20:56:22.276Z,13.25
2022-10-06T20:58:48.895Z,13.24
2022-10-06T21:01:16.612Z,13.42
2022-10-06T21:03:44.678Z,13.35
2022-10-06T21:06:11.425Z,13.38
2022-10-06T21:08:38.099Z,13.62
2022-10-06T21:11:04.860Z,13.23
2022-10-06T21:13:32.814Z,13.29
2022-10-06T21:15:59.879Z,13.36
2022-10-06T21:18:26.509Z,13.30
2022-10-06T21:20:56.383Z,13.35
2022-10-06T21:23:23.018Z,12.78
2022-10-06T21:25:49.588Z,12.79
2022-10-06T21:28:16.236Z,12.92
2022-10-06T21:30:44.624Z,13.12
2022-10-06T21:33:11.426Z,13.20
2022-10-06T21:35:38.143Z,13.08
2022-10-06T21:38:04.766Z,12.85
2022-10-06T21:40:35.525Z,13.02
2022-10-06T21:43:02.072Z,13.03
2022-10-06T21:45:32.929Z,13.03
2022-10-06T21:48:01.162Z,12.73
2022-10-06T21:50:27.850Z,12.73
2022-10-06T21:52:54.453Z,13.00
2022-10-06T21:55:21.062Z,12.69
2022-10-06T21:57:47.638Z,12.43
2022-10-06T22:00:14.842Z,12.45
2022-10-06T22:02:41.438Z,12.78
2022-10-06T22:05:09.634Z,12.88
2022-10-06T22:07:36.264Z,12.86
2022-10-06T22:10:03.073Z,12.80
2022-10-06T22:12:29.625Z,12.86
2022-10-06T22:14:56.229Z,12.77
2022-10-06T22:17:22.809Z,12.55
2022-10-06T22:19:49.375Z,12.74
2022-10-06T22:22:17.324Z,12.82
2022-10-06T22:24:43.879Z,12.81
2022-10-06T22:27:10.479Z,12.67
2022-10-06T22:29:37.089Z,12.88
2022-10-06T22:32:03.672Z,13.10
2022-10-06T22:34:30.272Z,12.66
2022-10-06T22:36:56.874Z,12.67
2022-10-06T22:39:24.820Z,12.87
2022-10-06T22:41:51.472Z,12.98
2022-10-06T22:44:18.024Z,12.78
2022-10-06T22:46:44.754Z,12.30
2022-10-06T22:49:11.378Z,12.18
2022-10-06T22:51:37.962Z,11.99
2022-10-06T22:54:04.786Z,11.91
2022-10-06T22:56:33.693Z,12.22
2022-10-06T22:59:01.224Z,12.11
2022-10-06T23:01:29.188Z,12.25
2022-10-06T23:03:56.255Z,12.01
2022-10-06T23:06:23.160Z,12.04
2022-10-06T23:08:49.937Z,12.35
2022-10-06T23:11:18.655Z,11.90
2022-10-06T23:13:46.603Z,11.73
2022-10-06T23:16:15.764Z,12.23
2022-10-06T23:18:43.990Z,12.40
2022-10-06T23:21:12.545Z,12.34
2022-10-06T23:23:39.292Z,12.20
2022-10-06T23:26:08.007Z,12.43
2022-10-06T23:28:35.060Z,12.21
2022-10-06T23:31:03.921Z,12.36
2022-10-06T23:33:30.930Z,11.87
2022-10-06T23:35:57.978Z,11.83
2022-10-06T23:38:24.598Z,12.02
2022-10-06T23:40:51.211Z,12.01
2022-10-06T23:43:17.806Z,12.02
2022-10-06T23:45:44.387Z,11.84
2022-10-06T23:48:12.411Z,11.64
2022-10-06T23:50:39.098Z,11.97
2022-10-06T23:53:05.705Z,11.58
2022-10-06T23:55:32.439Z,11.77
2022-10-06T23:57:59.122Z,12.05
